Denver International CA :: Limon Test

liberation: 2021-04-10  07:00     latitude: 39.268523     longitude: -103.703057 138 birds
# LOFT PRING MILES ARRIVAL SPEED ToWin
1 Hnos Valenzuela Loft AU19-HNOS-0041 77.685 2021-04-10 08:34:04.327 1453.410 00:00:00
2 Cuba Green Loft AU19-VONV-0520 77.822 2021-04-10 08:35:24.423 1435.598 00:01:10
3 Cuba Green Loft AU20-FH-20603 77.822 2021-04-10 08:35:30.435 1434.092 00:01:16
4 Cuba Green Loft AU19-FH-10117 77.822 2021-04-10 08:35:51.028 1428.957 00:01:37
5 Hnos Valenzuela Loft AU19-FH-9503 77.685 2021-04-10 08:36:02.842 1423.520 00:01:59
6 Hnos Valenzuela Loft AU20-FH-20567 77.685 2021-04-10 08:36:05.997 1422.742 00:02:02
7 Hnos Valenzuela Loft AU19-FH-9540 77.685 2021-04-10 08:36:11.713 1421.333 00:02:07
8 Hnos Valenzuela Loft AU19-HNOS-0052 77.685 2021-04-10 08:36:14.172 1420.727 00:02:10
9 Hnos Valenzuela Loft AU20-FH-20503 77.685 2021-04-10 08:36:14.654 1420.609 00:02:10
10 Hnos Valenzuela Loft AU20-DERB-01280 77.685 2021-04-10 08:36:16.210 1420.226 00:02:12
11 Hnos Valenzuela Loft AU20-FH-20547 77.685 2021-04-10 08:36:17.924 1419.805 00:02:14
12 Hnos Valenzuela Loft AU20-FH-20559 77.685 2021-04-10 08:36:19.152 1419.503 00:02:15
13 Hnos Valenzuela Loft AU20-FH-20510 77.685 2021-04-10 08:36:24.930 1418.085 00:02:21
14 Hnos Valenzuela Loft AU20-FH-20500 77.685 2021-04-10 08:36:28.243 1417.274 00:02:24
15 Hnos Valenzuela Loft AU20-FH-20532 77.685 2021-04-10 08:36:30.902 1416.623 00:02:27
16 Hnos Valenzuela Loft AU20-FH-20506 77.685 2021-04-10 08:36:44.626 1413.273 00:02:40
17 Hnos Valenzuela Loft AU20-FH-20554 77.685 2021-04-10 08:37:46.443 1398.381 00:03:42
18 Hnos Valenzuela Loft AU20-FH-20548 77.685 2021-04-10 08:37:48.672 1397.850 00:03:44
19 Hnos Valenzuela Loft AU20-FH-20523 77.685 2021-04-10 08:37:49.062 1397.757 00:03:45
20 Hnos Valenzuela Loft AU20-FH-20535 77.685 2021-04-10 08:37:53.513 1396.698 00:03:49
21 Hnos Valenzuela Loft AU20-FH-20569 77.685 2021-04-10 08:37:58.033 1395.624 00:03:54
22 Hnos Valenzuela Loft AU17-HNOS-0005 77.685 2021-04-10 08:38:00.307 1395.084 00:03:56
23 Cuba Green Loft AU20-ARPU-33319 77.822 2021-04-10 08:38:35.018 1389.340 00:04:21
24 Cuba Green Loft AU20-MATA-0059 77.822 2021-04-10 08:38:42.629 1387.555 00:04:28
25 Cuba Green Loft AU19-ARPU-9414 77.822 2021-04-10 08:38:49.371 1385.977 00:04:35
26 Cuba Green Loft AU20-HRPB-3005 77.822 2021-04-10 08:38:52.559 1385.232 00:04:38
27 Cuba Green Loft AU19-VONV-0546 77.822 2021-04-10 08:38:53.436 1385.027 00:04:39
28 Cuba Green Loft AU20-TUNA-0005 77.822 2021-04-10 08:38:56.333 1384.352 00:04:42
29 Cuba Green Loft AU20-FH-20604 77.822 2021-04-10 08:39:17.501 1379.433 00:05:03
30 Cuba Green Loft AU20-VIND-0241 77.822 2021-04-10 08:39:21.713 1378.458 00:05:07
31 Cuba Green Loft AU19-VONV-0536 77.822 2021-04-10 08:39:22.525 1378.270 00:05:08
32 Mile High Aviators AU19-FH-9748 76.764 2021-04-10 08:38:18.707 1374.240 00:05:21
33 Mile High Aviators AU20-FH-20804 76.764 2021-04-10 08:38:34.011 1370.684 00:05:37
34 Mile High Aviators AU19-FH-9995 76.764 2021-04-10 08:38:36.406 1370.129 00:05:39
35 Mile High Aviators AU19-FH-9989 76.764 2021-04-10 08:38:47.007 1367.678 00:05:50
36 Hnos Valenzuela Loft AU20-JEDD-34024 77.685 2021-04-10 08:40:22.960 1362.042 00:06:19
37 Hnos Valenzuela Loft AU19-HNOS-0010 77.685 2021-04-10 08:40:24.653 1361.659 00:06:20
38 Cuba Green Loft AU19-FH-10134 77.822 2021-04-10 08:40:36.216 1361.444 00:06:22
39 Hnos Valenzuela Loft AU20-FH-20861 77.685 2021-04-10 08:40:26.303 1361.286 00:06:22
40 Hnos Valenzuela Loft AU20-JEDD-34025 77.685 2021-04-10 08:40:27.755 1360.958 00:06:23
41 Mile High Aviators AU20-FH-20812 76.764 2021-04-10 08:40:03.275 1350.303 00:07:06
42 Mile High Aviators AU19-FH-9739 76.764 2021-04-10 08:40:11.386 1348.481 00:07:14
43 Tuna Family Loft AU19-FH-10009 58.613 2021-04-10 08:16:37.466 1346.290 00:05:39
44 Tuna Family Loft AU20-TFL-0042 58.613 2021-04-10 08:16:40.258 1345.473 00:05:42
45 Mile High Aviators AU19-FH-9710 76.764 2021-04-10 08:40:41.186 1341.829 00:07:44
46 Mata Loft AU20-MATA-0022 74.607 2021-04-10 08:38:59.137 1326.545 00:08:38
47 Mata Loft AU20-MATA-0030 74.607 2021-04-10 08:39:03.280 1325.620 00:08:43
48 Mata Loft AU19-MATA-0063 74.607 2021-04-10 08:39:17.194 1322.524 00:08:56
49 Mata Loft MX19-FMC-103884 74.607 2021-04-10 08:39:27.373 1320.268 00:09:07
50 Mata Loft AU20-MATA-0068 74.607 2021-04-10 08:39:30.429 1319.592 00:09:10
51 Mile High Aviators AU19-FH-9744 76.764 2021-04-10 08:42:24.851 1319.192 00:09:27
52 Mata Loft AU20-MATA-0014 74.607 2021-04-10 08:39:32.263 1319.187 00:09:12
53 Mile High Aviators AU19-FH-9993 76.764 2021-04-10 08:42:34.336 1317.159 00:09:37
54 Mile High Aviators AU19-FH-9975 76.764 2021-04-10 08:43:02.319 1311.197 00:10:05
55 Hnos Valenzuela Loft AU18-HNOS-0084 77.685 2021-04-10 08:44:19.679 1310.534 00:10:15
56 Cuba Green Loft AU20-ARPU-33306 77.822 2021-04-10 08:44:31.109 1310.449 00:10:17
57 Cuba Green Loft AU20-ZEPH-2078 77.822 2021-04-10 08:44:34.278 1309.788 00:10:20
58 Mile High Aviators AU19-FH-9762 76.764 2021-04-10 08:43:13.281 1308.876 00:10:16
59 Cuba Green Loft AU19-VONV-0502 77.822 2021-04-10 08:44:41.338 1308.315 00:10:27
60 Mile High Aviators AU19-FH-9707 76.764 2021-04-10 08:43:18.258 1307.826 00:10:21
61 Cuba Green Loft AU20-FH-20306 77.822 2021-04-10 08:44:47.743 1306.983 00:10:33
62 Cuba Green Loft AU20-VIND-0235 77.822 2021-04-10 08:46:43.563 1283.344 00:12:29
63 Cuba Green Loft AU19-VONV-0517 77.822 2021-04-10 08:46:53.427 1281.370 00:12:39
64 Mile High Aviators AU20-FH-20800 76.764 2021-04-10 08:46:09.374 1272.690 00:13:12
65 Mile High Aviators AU19-FH-9981 76.764 2021-04-10 08:46:27.408 1269.097 00:13:30
66 Tuna Family Loft IF17-FOYS-0634 58.613 2021-04-10 08:21:29.785 1265.807 00:10:31
67 Mile High Aviators AU20-FH-20823 76.764 2021-04-10 08:47:35.722 1255.667 00:14:38
68 Mata Loft AU20-MATA-0060 74.607 2021-04-10 08:45:19.510 1246.700 00:14:59
69 Cuba Green Loft AU20-MATA-0056 77.822 2021-04-10 08:50:54.553 1234.940 00:16:40
70 Cuba Green Loft AU20-JAMA-2000 77.822 2021-04-10 08:51:00.635 1233.812 00:16:46
71 Cuba Green Loft AU20-ARPU-33321 77.822 2021-04-10 08:51:03.486 1233.284 00:16:49
72 Cuba Green Loft AU20-ARPU-33303 77.822 2021-04-10 08:51:03.849 1233.217 00:16:50
73 Tuna Family Loft AU20-TFL-0050 58.613 2021-04-10 08:24:19.364 1223.380 00:13:21
74 Hnos Valenzuela Loft AU20-FH-20513 77.685 2021-04-10 08:52:11.958 1218.594 00:18:08
75 Tuna Family Loft AU20-TFL-0057 58.613 2021-04-10 08:24:46.357 1216.887 00:13:48
76 Mata Loft AU20-CHEC-0090 74.607 2021-04-10 08:49:26.061 1199.887 00:19:05
77 Mata Loft AU20-MATA-0029 74.607 2021-04-10 08:49:30.615 1199.055 00:19:10
78 Mata Loft AU20-MATA-0065 74.607 2021-04-10 08:50:42.826 1186.021 00:20:22
79 Hnos Valenzuela Loft AU20-FH-20850 77.685 2021-04-10 08:55:21.044 1185.301 00:21:17
80 Mata Loft AU19-MATA-0062 74.607 2021-04-10 08:51:21.569 1179.144 00:21:01
81 Mata Loft AU20-MATA-0078 74.607 2021-04-10 08:51:39.121 1176.054 00:21:18
82 Tuna Family Loft IF17-FOYS-0640 58.613 2021-04-10 08:28:46.923 1161.932 00:17:48
83 Tuna Family Loft AU19-FH-9522 58.613 2021-04-10 08:28:55.757 1160.009 00:17:57
84 Tuna Family Loft AU19-FH-9501 58.613 2021-04-10 08:29:37.016 1151.108 00:18:38
85 Mile High Aviators AU20-FH-20808 76.764 2021-04-10 08:59:59.564 1125.935 00:27:02
86 Mile High Aviators AU19-FH-9749 76.764 2021-04-10 09:00:02.267 1125.512 00:27:05
87 Mile High Aviators AU20-FH-20818 76.764 2021-04-10 09:00:05.217 1125.051 00:27:08
88 Mile High Aviators AU20-FH-20841 76.764 2021-04-10 09:00:17.991 1123.060 00:27:21
89 Mile High Aviators AU20-FH-20807 76.764 2021-04-10 09:01:19.864 1113.515 00:28:22
90 Cuba Green Loft AU15-VONV-0049 77.822 2021-04-10 09:04:30.484 1100.059 00:30:16
91 Mata Loft AU20-MATA-0016 74.607 2021-04-10 09:00:08.693 1092.921 00:29:48
92 Hnos Valenzuela Loft AU19-HNOS-0018 77.685 2021-04-10 09:05:20.527 1090.818 00:31:16
93 Hnos Valenzuela Loft AU17-HNOS-0083 77.685 2021-04-10 09:05:20.910 1090.762 00:31:17
94 Hnos Valenzuela Loft AU20-FH-20863 77.685 2021-04-10 09:05:21.535 1090.671 00:31:17
95 Hnos Valenzuela Loft AU18-HNOS-0008 77.685 2021-04-10 09:05:22.525 1090.528 00:31:18
96 Hnos Valenzuela Loft AU17-HNOS-0037 77.685 2021-04-10 09:05:28.899 1089.605 00:31:25
97 Mata Loft AU20-MATA-0042 74.607 2021-04-10 09:01:48.853 1077.943 00:31:28
98 Mile High Aviators AU20-FH-20813 76.764 2021-04-10 09:06:41.866 1066.349 00:33:44
99 Cuba Green Loft AU20-MATA-0062 77.822 2021-04-10 09:09:04.929 1061.078 00:34:51
100 Tuna Family Loft IF17-FOYS-0655 58.613 2021-04-10 08:38:31.666 1047.002 00:27:33
101 Tuna Family Loft IF17-FOYS-0638 58.613 2021-04-10 08:38:35.439 1046.334 00:27:37
102 Mata Loft AU19-FH-9814 74.607 2021-04-10 09:07:14.980 1031.899 00:36:54
103 Tuna Family Loft AU19-FH-9514 58.613 2021-04-10 08:43:00.303 1001.492 00:32:02
104 Tuna Family Loft AU20-TFL-0077 58.613 2021-04-10 08:43:10.318 999.872 00:32:12
105 Cuba Green Loft AU20-FH-20639 77.822 2021-04-10 09:17:32.671 995.795 00:43:18
106 Cuba Green Loft AU20-VENN-0087 77.822 2021-04-10 09:19:18.228 983.219 00:45:04
107 Cuba Green Loft AU20-FH-20633 77.822 2021-04-10 09:20:44.857 973.133 00:46:31
108 Mata Loft AU19-MATA-0021 74.607 2021-04-10 09:15:16.449 970.687 00:44:56
109 Tuna Family Loft AU19-FH-10153 58.613 2021-04-10 08:47:57.758 955.504 00:36:59
110 Mata Loft AU20-SALE-0030 74.607 2021-04-10 09:19:49.156 939.133 00:49:28
111 Mata Loft AU20-MATA-0037 74.607 2021-04-10 09:19:51.135 938.911 00:49:30
112 Mile High Aviators AU20-FH-20825 76.764 2021-04-10 09:24:35.548 934.378 00:51:38
113 Mata Loft AU20-MATA-0075 74.607 2021-04-10 09:25:08.818 904.661 00:54:48
114 Tuna Family Loft AU20-ARPU-33311 58.613 2021-04-10 09:00:18.672 857.432 00:49:20
115 Tuna Family Loft AU19-FH-10027 58.613 2021-04-10 09:01:59.932 845.571 00:51:01
116 Mata Loft AU20-MATA-0005 74.607 2021-04-10 09:39:58.948 820.770 01:09:38
117 Tuna Family Loft AU20-TFL-0031 58.613 2021-04-10 09:05:41.189 820.762 00:54:43
118 Mata Loft AU20-MATA-0012 74.607 2021-04-10 09:40:03.411 820.389 01:09:43
119 Mata Loft AU20-MATA-0053 74.607 2021-04-10 09:41:09.445 814.786 01:10:49
120 Mata Loft AU20-MATA-0031 74.607 2021-04-10 09:41:35.845 812.568 01:11:15
121 Hnos Valenzuela Loft AU20-FH-20860 77.685 2021-04-10 09:51:14.871 798.406 01:17:11
122 Tuna Family Loft AU19-FH-10003 58.613 2021-04-10 09:13:42.470 771.523 01:02:44
123 Tuna Family Loft IF17-FOYS-0654 58.613 2021-04-10 09:19:27.051 739.750 01:08:28
124 Cuba Green Loft AU20-FH-20648 77.822 2021-04-10 10:08:59.842 724.699 01:34:46
125 Tuna Family Loft AU19-FH-9545 58.613 2021-04-10 09:33:42.930 671.102 01:22:44
126 Cuba Green Loft AU20-FH-20649 77.822 2021-04-10 10:26:15.775 664.037 01:52:02
127 Tuna Family Loft AU19-FH-10026 58.613 2021-04-10 09:41:05.074 640.401 01:30:06
128 Tuna Family Loft AU20-FH-20248 58.613 2021-04-10 09:41:05.714 640.359 01:30:07
129 Tuna Family Loft AU20-TFL-0026 58.613 2021-04-10 09:42:03.792 636.534 01:31:05
130 Tuna Family Loft AU19-FH-9510 58.613 2021-04-10 09:51:21.381 602.013 01:40:23
131 Tuna Family Loft AU19-FH-9536 58.613 2021-04-10 09:59:56.757 573.276 01:48:58
132 Cuba Green Loft AU20-FH-20636 77.822 2021-04-10 11:07:19.829 553.778 02:33:06
133 Tuna Family Loft AU17-FH-7212 58.613 2021-04-10 10:26:23.956 499.802 02:15:25
Cuba Green Loft AU20-FH-20634 0 0000-00-00 00:00:00.000 0.000 00:00:00
Cuba Green Loft AU20-FH-20642 0 0000-00-00 00:00:00.000 0.000 00:00:00
Mile High Aviators AU19-FH-9976 0 0000-00-00 00:00:00.000 0.000 00:00:00
Mile High Aviators AU20-FH-20827 0 0000-00-00 00:00:00.000 0.000 00:00:00
Mile High Aviators AU20-POP-0028 0 0000-00-00 00:00:00.000 0.000 00:00:00